sensor_id;sensor_type;location;lat;lon;timestamp;temperature;humidity
19930;DHT22;10127;47.780;9.606;2024-01-15T05:56:28;1.50;99.90
19930;DHT22;10127;47.780;9.606;2024-01-15T05:59:00;1.40;99.90
19930;DHT22;10127;47.780;9.606;2024-01-15T06:01:27;1.50;99.90
19930;DHT22;10127;47.780;9.606;2024-01-15T06:03:52;1.50;99.90
19930;DHT22;10127;47.780;9.606;2024-01-15T06:06:18;1.60;99.90
19930;DHT22;10127;47.780;9.606;2024-01-15T06:08:43;1.60;99.90
19930;DHT22;10127;47.780;9.606;2024-01-15T06:11:09;1.70;99.90
19930;DHT22;10127;47.780;9.606;2024-01-15T06:13:34;1.80;99.90
19930;DHT22;10127;47.780;9.606;2024-01-15T06:16:00;1.70;99.90
19930;DHT22;10127;47.780;9.606;2024-01-15T06:18:25;1.60;99.90
19930;DHT22;10127;47.780;9.606;2024-01-15T06:20:51;1.50;99.90
19930;DHT22;10127;47.780;9.606;2024-01-15T06:23:16;1.70;99.90
19930;DHT22;10127;47.780;9.606;2024-01-15T06:25:42;1.80;99.90
19930;DHT22;10127;47.780;9.606;2024-01-15T06:28:07;1.90;99.90
19930;DHT22;10127;47.780;9.606;2024-01-15T06:30:33;1.90;99.90
19930;DHT22;10127;47.780;9.606;2024-01-15T06:32:58;1.90;99.90
19930;DHT22;10127;47.780;9.606;2024-01-15T06:35:24;1.70;99.90
19930;DHT22;10127;47.780;9.606;2024-01-15T06:37:49;1.70;99.90
19930;DHT22;10127;47.780;9.606;2024-01-15T06:40:15;1.70;99.90
19930;DHT22;10127;47.780;9.606;2024-01-15T06:42:41;1.60;99.90
19930;DHT22;10127;47.780;9.606;2024-01-15T06:45:07;1.70;99.90
19930;DHT22;10127;47.780;9.606;2024-01-15T06:47:32;1.80;99.90
19930;DHT22;10127;47.780;9.606;2024-01-15T06:49:58;2.00;99.90
19930;DHT22;10127;47.780;9.606;2024-01-15T06:52:24;2.10;99.90
19930;DHT22;10127;47.780;9.606;2024-01-15T06:54:49;2.00;99.90
19930;DHT22;10127;47.780;9.606;2024-01-15T06:57:15;2.00;99.90
19930;DHT22;10127;47.780;9.606;2024-01-15T06:59:40;1.80;99.90
19930;DHT22;10127;47.780;9.606;2024-01-15T07:02:06;1.90;99.90
19930;DHT22;10127;47.780;9.606;2024-01-15T07:04:31;2.00;99.90
19930;DHT22;10127;47.780;9.606;2024-01-15T07:06:57;2.00;99.90
19930;DHT22;10127;47.780;9.606;2024-01-15T07:09:23;1.90;99.90
19930;DHT22;10127;47.780;9.606;2024-01-15T07:11:48;2.00;99.90
19930;DHT22;10127;47.780;9.606;2024-01-15T07:14:14;2.00;99.90
19930;DHT22;10127;47.780;9.606;2024-01-15T07:16:39;1.90;99.90
19930;DHT22;10127;47.780;9.606;2024-01-15T07:19:05;2.00;99.90
19930;DHT22;10127;47.780;9.606;2024-01-15T07:21:31;1.90;99.90
19930;DHT22;10127;47.780;9.606;2024-01-15T07:23:57;1.90;99.90
19930;DHT22;10127;47.780;9.606;2024-01-15T07:26:22;1.90;99.90
19930;DHT22;10127;47.780;9.606;2024-01-15T07:28:48;1.90;99.90
19930;DHT22;10127;47.780;9.606;2024-01-15T07:31:15;1.90;99.90
19930;DHT22;10127;47.780;9.606;2024-01-15T07:33:41;1.80;99.90
19930;DHT22;10127;47.780;9.606;2024-01-15T07:36:07;2.00;99.90
19930;DHT22;10127;47.780;9.606;2024-01-15T07:38:32;2.00;99.90
19930;DHT22;10127;47.780;9.606;2024-01-15T07:40:58;1.90;99.90
19930;DHT22;10127;47.780;9.606;2024-01-15T07:43:23;1.90;99.90
19930;DHT22;10127;47.780;9.606;2024-01-15T07:45:49;1.80;99.90
19930;DHT22;10127;47.780;9.606;2024-01-15T07:48:15;1.90;99.90
19930;DHT22;10127;47.780;9.606;2024-01-15T07:50:40;2.00;99.90
19930;DHT22;10127;47.780;9.606;2024-01-15T07:53:06;2.00;99.90
19930;DHT22;10127;47.780;9.606;2024-01-15T07:55:31;2.30;99.90
19930;DHT22;10127;47.780;9.606;2024-01-15T07:57:57;2.20;99.90
19930;DHT22;10127;47.780;9.606;2024-01-15T08:00:24;2.20;99.90
19930;DHT22;10127;47.780;9.606;2024-01-15T08:02:50;2.10;99.90
19930;DHT22;10127;47.780;9.606;2024-01-15T08:05:16;2.10;99.90
19930;DHT22;10127;47.780;9.606;2024-01-15T08:07:42;2.20;99.90
19930;DHT22;10127;47.780;9.606;2024-01-15T08:10:08;2.30;99.90
19930;DHT22;10127;47.780;9.606;2024-01-15T08:12:33;2.40;99.90
19930;DHT22;10127;47.780;9.606;2024-01-15T08:14:59;2.10;99.90
19930;DHT22;10127;47.780;9.606;2024-01-15T08:17:24;2.20;99.90
19930;DHT22;10127;47.780;9.606;2024-01-15T08:19:54;2.10;99.90
19930;DHT22;10127;47.780;9.606;2024-01-15T08:22:19;2.20;99.90
19930;DHT22;10127;47.780;9.606;2024-01-15T08:24:45;2.30;99.90
19930;DHT22;10127;47.780;9.606;2024-01-15T08:27:11;2.40;99.90
19930;DHT22;10127;47.780;9.606;2024-01-15T08:29:36;2.40;99.90
19930;DHT22;10127;47.780;9.606;2024-01-15T08:32:02;2.30;99.90
19930;DHT22;10127;47.780;9.606;2024-01-15T08:34:27;2.40;99.90
19930;DHT22;10127;47.780;9.606;2024-01-15T08:36:53;2.50;99.90
19930;DHT22;10127;47.780;9.606;2024-01-15T08:39:19;2.50;99.90
19930;DHT22;10127;47.780;9.606;2024-01-15T08:41:44;2.70;99.90
19930;DHT22;10127;47.780;9.606;2024-01-15T08:44:12;2.70;99.90
19930;DHT22;10127;47.780;9.606;2024-01-15T08:46:37;2.60;99.90
19930;DHT22;10127;47.780;9.606;2024-01-15T08:49:03;2.60;99.90
19930;DHT22;10127;47.780;9.606;2024-01-15T08:51:29;2.60;99.90
19930;DHT22;10127;47.780;9.606;2024-01-15T08:53:56;2.40;99.90
19930;DHT22;10127;47.780;9.606;2024-01-15T08:56:22;2.50;99.90
19930;DHT22;10127;47.780;9.606;2024-01-15T08:58:47;2.60;99.90
19930;DHT22;10127;47.780;9.606;2024-01-15T09:01:13;2.60;99.90
19930;DHT22;10127;47.780;9.606;2024-01-15T09:03:40;2.60;99.90
19930;DHT22;10127;47.780;9.606;2024-01-15T09:06:07;2.60;99.90
19930;DHT22;10127;47.780;9.606;2024-01-15T09:08:32;2.50;99.90
19930;DHT22;10127;47.780;9.606;2024-01-15T09:10:58;2.60;99.90
19930;DHT22;10127;47.780;9.606;2024-01-15T09:13:23;2.70;99.90
19930;DHT22;10127;47.780;9.606;2024-01-15T09:15:49;2.70;99.90
19930;DHT22;10127;47.780;9.606;2024-01-15T09:18:15;2.70;99.90
19930;DHT22;10127;47.780;9.606;2024-01-15T09:20:40;2.60;99.90
19930;DHT22;10127;47.780;9.606;2024-01-15T09:23:06;2.60;99.90
19930;DHT22;10127;47.780;9.606;2024-01-15T09:25:31;2.60;99.90
19930;DHT22;10127;47.780;9.606;2024-01-15T09:27:57;2.70;99.90
19930;DHT22;10127;47.780;9.606;2024-01-15T09:30:23;2.70;99.90
19930;DHT22;10127;47.780;9.606;2024-01-15T09:32:48;2.70;99.90
19930;DHT22;10127;47.780;9.606;2024-01-15T09:35:14;2.60;99.90
19930;DHT22;10127;47.780;9.606;2024-01-15T09:37:41;2.70;99.90
19930;DHT22;10127;47.780;9.606;2024-01-15T09:40:14;2.80;99.90
19930;DHT22;10127;47.780;9.606;2024-01-15T09:42:43;2.80;99.90
19930;DHT22;10127;47.780;9.606;2024-01-15T09:45:09;3.00;99.90
19930;DHT22;10127;47.780;9.606;2024-01-15T09:47:36;3.00;99.90
19930;DHT22;10127;47.780;9.606;2024-01-15T09:50:02;3.00;99.90
19930;DHT22;10127;47.780;9.606;2024-01-15T09:52:30;3.00;99.90
19930;DHT22;10127;47.780;9.606;2024-01-15T09:54:57;3.10;99.90
19930;DHT22;10127;47.780;9.606;2024-01-15T09:57:31;3.20;99.90
19930;DHT22;10127;47.780;9.606;2024-01-15T10:00:04;3.30;99.90
19930;DHT22;10127;47.780;9.606;2024-01-15T10:02:31;3.40;99.90
19930;DHT22;10127;47.780;9.606;2024-01-15T10:04:57;3.20;99.90
19930;DHT22;10127;47.780;9.606;2024-01-15T10:07:23;3.30;99.90
19930;DHT22;10127;47.780;9.606;2024-01-15T10:09:50;3.20;99.90
19930;DHT22;10127;47.780;9.606;2024-01-15T10:12:16;3.30;99.90
19930;DHT22;10127;47.780;9.606;2024-01-15T10:14:42;3.20;99.90
19930;DHT22;10127;47.780;9.606;2024-01-15T10:17:15;3.20;99.90
19930;DHT22;10127;47.780;9.606;2024-01-15T10:19:40;3.30;99.90
19930;DHT22;10127;47.780;9.606;2024-01-15T10:22:08;3.20;99.90
19930;DHT22;10127;47.780;9.606;2024-01-15T10:24:41;3.20;99.90
19930;DHT22;10127;47.780;9.606;2024-01-15T10:27:11;3.40;99.90
19930;DHT22;10127;47.780;9.606;2024-01-15T10:29:37;3.50;99.90
19930;DHT22;10127;47.780;9.606;2024-01-15T10:32:06;3.50;99.90
19930;DHT22;10127;47.780;9.606;2024-01-15T10:34:32;3.50;99.90
19930;DHT22;10127;47.780;9.606;2024-01-15T10:36:58;3.60;99.90
19930;DHT22;10127;47.780;9.606;2024-01-15T10:39:24;3.60;99.90
19930;DHT22;10127;47.780;9.606;2024-01-15T10:41:51;3.60;99.90
19930;DHT22;10127;47.780;9.606;2024-01-15T10:44:19;3.40;99.90
19930;DHT22;10127;47.780;9.606;2024-01-15T10:46:45;3.40;99.90
19930;DHT22;10127;47.780;9.606;2024-01-15T10:49:18;3.40;99.90
19930;DHT22;10127;47.780;9.606;2024-01-15T10:51:55;3.60;99.90
19930;DHT22;10127;47.780;9.606;2024-01-15T10:54:21;3.70;99.90
19930;DHT22;10127;47.780;9.606;2024-01-15T10:56:50;3.70;99.90
19930;DHT22;10127;47.780;9.606;2024-01-15T10:59:16;3.80;99.90
19930;DHT22;10127;47.780;9.606;2024-01-15T11:01:42;3.80;99.90
19930;DHT22;10127;47.780;9.606;2024-01-15T11:04:09;3.90;99.90
19930;DHT22;10127;47.780;9.606;2024-01-15T11:06:46;3.90;99.90
19930;DHT22;10127;47.780;9.606;2024-01-15T11:09:12;4.00;99.90
19930;DHT22;10127;47.780;9.606;2024-01-15T11:11:47;3.70;99.90
19930;DHT22;10127;47.780;9.606;2024-01-15T11:14:40;3.60;99.90
19930;DHT22;10127;47.780;9.606;2024-01-15T11:17:06;3.00;99.90
19930;DHT22;10127;47.780;9.606;2024-01-15T11:19:45;2.80;99.90
19930;DHT22;10127;47.780;9.606;2024-01-15T11:24:56;2.80;99.90
19930;DHT22;10127;47.780;9.606;2024-01-15T11:27:42;2.80;99.90
19930;DHT22;10127;47.780;9.606;2024-01-15T11:30:08;2.70;99.90
19930;DHT22;10127;47.780;9.606;2024-01-15T11:32:35;2.70;99.90
19930;DHT22;10127;47.780;9.606;2024-01-15T11:35:02;2.60;99.90
19930;DHT22;10127;47.780;9.606;2024-01-15T11:37:29;2.50;99.90
19930;DHT22;10127;47.780;9.606;2024-01-15T11:40:21;2.50;99.90
19930;DHT22;10127;47.780;9.606;2024-01-15T11:42:47;2.70;99.90
19930;DHT22;10127;47.780;9.606;2024-01-15T11:45:15;2.90;99.90
19930;DHT22;10127;47.780;9.606;2024-01-15T11:50:18;3.00;99.90
19930;DHT22;10127;47.780;9.606;2024-01-15T11:53:02;2.80;99.90
19930;DHT22;10127;47.780;9.606;2024-01-15T11:55:33;2.90;99.90
19930;DHT22;10127;47.780;9.606;2024-01-15T11:58:01;3.00;99.90
19930;DHT22;10127;47.780;9.606;2024-01-15T12:00:27;3.00;99.90
19930;DHT22;10127;47.780;9.606;2024-01-15T12:02:53;2.90;99.90
19930;DHT22;10127;47.780;9.606;2024-01-15T12:05:20;3.10;99.90
19930;DHT22;10127;47.780;9.606;2024-01-15T12:07:49;3.00;99.90
19930;DHT22;10127;47.780;9.606;2024-01-15T12:10:20;2.90;99.90
19930;DHT22;10127;47.780;9.606;2024-01-15T12:15:26;2.90;99.90
19930;DHT22;10127;47.780;9.606;2024-01-15T12:17:53;3.10;99.90
19930;DHT22;10127;47.780;9.606;2024-01-15T12:20:19;3.30;99.90
19930;DHT22;10127;47.780;9.606;2024-01-15T12:22:45;3.40;99.90
19930;DHT22;10127;47.780;9.606;2024-01-15T12:25:11;3.50;99.90
19930;DHT22;10127;47.780;9.606;2024-01-15T12:27:37;3.70;99.90
19930;DHT22;10127;47.780;9.606;2024-01-15T12:30:03;3.70;99.90
19930;DHT22;10127;47.780;9.606;2024-01-15T12:32:29;3.40;99.90
19930;DHT22;10127;47.780;9.606;2024-01-15T12:34:55;3.40;99.90
19930;DHT22;10127;47.780;9.606;2024-01-15T12:37:21;3.50;99.90
19930;DHT22;10127;47.780;9.606;2024-01-15T12:39:47;3.60;99.90
19930;DHT22;10127;47.780;9.606;2024-01-15T12:42:16;3.60;99.90
19930;DHT22;10127;47.780;9.606;2024-01-15T12:44:42;3.60;99.90
19930;DHT22;10127;47.780;9.606;2024-01-15T12:47:08;3.60;99.90
19930;DHT22;10127;47.780;9.606;2024-01-15T12:49:38;3.70;99.90
19930;DHT22;10127;47.780;9.606;2024-01-15T12:52:08;4.00;99.90
19930;DHT22;10127;47.780;9.606;2024-01-15T12:54:34;4.20;99.90
19930;DHT22;10127;47.780;9.606;2024-01-15T12:57:00;4.30;99.90
19930;DHT22;10127;47.780;9.606;2024-01-15T12:59:25;4.10;99.90
19930;DHT22;10127;47.780;9.606;2024-01-15T13:01:51;4.20;99.90
19930;DHT22;10127;47.780;9.606;2024-01-15T13:04:24;4.30;99.90
19930;DHT22;10127;47.780;9.606;2024-01-15T13:06:50;4.30;99.90
19930;DHT22;10127;47.780;9.606;2024-01-15T13:09:17;4.40;99.90
19930;DHT22;10127;47.780;9.606;2024-01-15T13:11:44;4.20;99.90
19930;DHT22;10127;47.780;9.606;2024-01-15T13:14:10;4.20;99.90
19930;DHT22;10127;47.780;9.606;2024-01-15T13:16:35;4.30;99.90
19930;DHT22;10127;47.780;9.606;2024-01-15T13:19:01;4.30;99.90
19930;DHT22;10127;47.780;9.606;2024-01-15T13:21:29;4.20;99.90
19930;DHT22;10127;47.780;9.606;2024-01-15T13:23:55;4.10;99.90
19930;DHT22;10127;47.780;9.606;2024-01-15T13:26:21;4.00;99.90
19930;DHT22;10127;47.780;9.606;2024-01-15T13:28:46;4.30;99.90
19930;DHT22;10127;47.780;9.606;2024-01-15T13:31:12;4.40;99.90
19930;DHT22;10127;47.780;9.606;2024-01-15T13:33:39;4.70;99.90
19930;DHT22;10127;47.780;9.606;2024-01-15T13:36:05;4.90;99.90
19930;DHT22;10127;47.780;9.606;2024-01-15T13:38:38;5.10;99.90
19930;DHT22;10127;47.780;9.606;2024-01-15T13:41:07;5.30;99.90
19930;DHT22;10127;47.780;9.606;2024-01-15T13:43:33;5.40;99.90
19930;DHT22;10127;47.780;9.606;2024-01-15T13:45:59;5.30;99.90
19930;DHT22;10127;47.780;9.606;2024-01-15T13:48:25;5.50;99.90
19930;DHT22;10127;47.780;9.606;2024-01-15T13:50:52;5.40;99.90
19930;DHT22;10127;47.780;9.606;2024-01-15T13:53:17;5.20;99.90
19930;DHT22;10127;47.780;9.606;2024-01-15T13:55:44;5.10;99.90
19930;DHT22;10127;47.780;9.606;2024-01-15T13:58:10;5.00;99.90
19930;DHT22;10127;47.780;9.606;2024-01-15T14:00:36;4.80;99.90
19930;DHT22;10127;47.780;9.606;2024-01-15T14:03:02;4.70;99.90
19930;DHT22;10127;47.780;9.606;2024-01-15T14:05:28;4.50;99.90
19930;DHT22;10127;47.780;9.606;2024-01-15T14:07:53;4.40;99.90
19930;DHT22;10127;47.780;9.606;2024-01-15T14:10:19;4.50;99.90
19930;DHT22;10127;47.780;9.606;2024-01-15T14:12:44;4.50;99.90
19930;DHT22;10127;47.780;9.606;2024-01-15T14:15:10;4.40;99.90
19930;DHT22;10127;47.780;9.606;2024-01-15T14:17:35;4.20;99.90
19930;DHT22;10127;47.780;9.606;2024-01-15T14:20:01;4.20;99.90
19930;DHT22;10127;47.780;9.606;2024-01-15T14:22:26;4.20;99.90
19930;DHT22;10127;47.780;9.606;2024-01-15T14:24:52;4.20;99.90
19930;DHT22;10127;47.780;9.606;2024-01-15T14:27:19;4.20;99.90
19930;DHT22;10127;47.780;9.606;2024-01-15T14:29:44;4.30;99.90
19930;DHT22;10127;47.780;9.606;2024-01-15T14:32:11;4.40;99.90
19930;DHT22;10127;47.780;9.606;2024-01-15T14:34:37;4.40;99.90
19930;DHT22;10127;47.780;9.606;2024-01-15T14:37:03;4.20;99.90
19930;DHT22;10127;47.780;9.606;2024-01-15T14:39:29;4.40;99.90
19930;DHT22;10127;47.780;9.606;2024-01-15T14:41:57;4.30;99.90
19930;DHT22;10127;47.780;9.606;2024-01-15T14:44:23;4.20;99.90
19930;DHT22;10127;47.780;9.606;2024-01-15T14:46:49;4.20;99.90
19930;DHT22;10127;47.780;9.606;2024-01-15T14:49:15;4.20;99.90
19930;DHT22;10127;47.780;9.606;2024-01-15T14:51:42;4.20;99.90
19930;DHT22;10127;47.780;9.606;2024-01-15T14:54:10;4.10;99.90
19930;DHT22;10127;47.780;9.606;2024-01-15T14:56:35;4.10;99.90
19930;DHT22;10127;47.780;9.606;2024-01-15T14:59:01;4.00;99.90
19930;DHT22;10127;47.780;9.606;2024-01-15T15:01:26;4.10;99.90
19930;DHT22;10127;47.780;9.606;2024-01-15T15:03:52;4.10;99.90
19930;DHT22;10127;47.780;9.606;2024-01-15T15:06:18;4.20;99.90
19930;DHT22;10127;47.780;9.606;2024-01-15T15:08:43;4.20;99.90
19930;DHT22;10127;47.780;9.606;2024-01-15T15:11:09;4.10;99.90
19930;DHT22;10127;47.780;9.606;2024-01-15T15:13:36;4.10;99.90
19930;DHT22;10127;47.780;9.606;2024-01-15T15:16:01;4.10;99.90
19930;DHT22;10127;47.780;9.606;2024-01-15T15:18:27;4.10;99.90
19930;DHT22;10127;47.780;9.606;2024-01-15T15:20:55;3.90;99.90
19930;DHT22;10127;47.780;9.606;2024-01-15T15:23:21;3.90;99.90
19930;DHT22;10127;47.780;9.606;2024-01-15T15:25:46;3.80;99.90
19930;DHT22;10127;47.780;9.606;2024-01-15T15:28:12;3.80;99.90
19930;DHT22;10127;47.780;9.606;2024-01-15T15:30:39;3.80;99.90
19930;DHT22;10127;47.780;9.606;2024-01-15T15:33:05;3.60;99.90
19930;DHT22;10127;47.780;9.606;2024-01-15T15:35:31;3.60;99.90
19930;DHT22;10127;47.780;9.606;2024-01-15T15:37:57;3.60;99.90
19930;DHT22;10127;47.780;9.606;2024-01-15T15:40:23;3.60;99.90
19930;DHT22;10127;47.780;9.606;2024-01-15T15:42:50;3.60;99.90
19930;DHT22;10127;47.780;9.606;2024-01-15T15:45:15;3.60;99.90
19930;DHT22;10127;47.780;9.606;2024-01-15T15:47:41;3.60;99.90
19930;DHT22;10127;47.780;9.606;2024-01-15T15:50:07;3.70;99.90
19930;DHT22;10127;47.780;9.606;2024-01-15T15:52:33;3.70;99.90
19930;DHT22;10127;47.780;9.606;2024-01-15T15:55:00;3.70;99.90
19930;DHT22;10127;47.780;9.606;2024-01-15T15:57:25;3.70;99.90
19930;DHT22;10127;47.780;9.606;2024-01-15T15:59:52;3.60;99.90
19930;DHT22;10127;47.780;9.606;2024-01-15T16:02:21;3.60;99.90
19930;DHT22;10127;47.780;9.606;2024-01-15T16:04:46;3.60;99.90
19930;DHT22;10127;47.780;9.606;2024-01-15T16:07:12;3.60;99.90
19930;DHT22;10127;47.780;9.606;2024-01-15T16:09:39;3.60;99.90
19930;DHT22;10127;47.780;9.606;2024-01-15T16:12:05;3.50;99.90
19930;DHT22;10127;47.780;9.606;2024-01-15T16:14:31;3.40;99.90
19930;DHT22;10127;47.780;9.606;2024-01-15T16:16:57;3.40;99.90
19930;DHT22;10127;47.780;9.606;2024-01-15T16:19:26;3.30;99.90
19930;DHT22;10127;47.780;9.606;2024-01-15T16:21:52;3.30;99.90
19930;DHT22;10127;47.780;9.606;2024-01-15T16:24:18;3.20;99.90
19930;DHT22;10127;47.780;9.606;2024-01-15T16:26:45;3.30;99.90
19930;DHT22;10127;47.780;9.606;2024-01-15T16:29:11;3.20;99.90
19930;DHT22;10127;47.780;9.606;2024-01-15T16:31:37;3.10;99.90
19930;DHT22;10127;47.780;9.606;2024-01-15T16:34:03;3.20;99.90
19930;DHT22;10127;47.780;9.606;2024-01-15T16:36:29;3.20;99.90
19930;DHT22;10127;47.780;9.606;2024-01-15T16:38:55;3.20;99.90
19930;DHT22;10127;47.780;9.606;2024-01-15T16:41:20;3.20;99.90
19930;DHT22;10127;47.780;9.606;2024-01-15T16:43:46;3.10;99.90
19930;DHT22;10127;47.780;9.606;2024-01-15T16:46:12;3.00;99.90
19930;DHT22;10127;47.780;9.606;2024-01-15T16:48:37;3.00;99.90
19930;DHT22;10127;47.780;9.606;2024-01-15T16:51:04;2.90;99.90
19930;DHT22;10127;47.780;9.606;2024-01-15T16:53:29;2.80;99.90
19930;DHT22;10127;47.780;9.606;2024-01-15T16:55:55;2.80;99.90
19930;DHT22;10127;47.780;9.606;2024-01-15T16:58:20;2.80;99.90
19930;DHT22;10127;47.780;9.606;2024-01-15T17:00:46;2.80;99.90
19930;DHT22;10127;47.780;9.606;2024-01-15T17:03:12;2.70;99.90
19930;DHT22;10127;47.780;9.606;2024-01-15T17:05:40;2.70;99.90
19930;DHT22;10127;47.780;9.606;2024-01-15T17:08:05;2.80;99.90
19930;DHT22;10127;47.780;9.606;2024-01-15T17:10:32;2.60;99.90
19930;DHT22;10127;47.780;9.606;2024-01-15T17:12:58;2.70;99.90
19930;DHT22;10127;47.780;9.606;2024-01-15T17:15:25;2.60;99.90
19930;DHT22;10127;47.780;9.606;2024-01-15T17:17:51;2.50;99.90
19930;DHT22;10127;47.780;9.606;2024-01-15T17:20:16;2.40;99.90
19930;DHT22;10127;47.780;9.606;2024-01-15T17:22:42;2.30;99.90
19930;DHT22;10127;47.780;9.606;2024-01-15T17:25:07;2.30;99.90
19930;DHT22;10127;47.780;9.606;2024-01-15T17:27:33;2.30;99.90
19930;DHT22;10127;47.780;9.606;2024-01-15T17:29:58;2.40;99.90
19930;DHT22;10127;47.780;9.606;2024-01-15T17:32:24;2.50;99.90
19930;DHT22;10127;47.780;9.606;2024-01-15T17:34:50;2.40;99.90
19930;DHT22;10127;47.780;9.606;2024-01-15T17:37:15;2.30;99.90
19930;DHT22;10127;47.780;9.606;2024-01-15T17:39:41;2.20;99.90
19930;DHT22;10127;47.780;9.606;2024-01-15T17:42:09;2.10;99.90
19930;DHT22;10127;47.780;9.606;2024-01-15T17:44:35;2.00;99.90
19930;DHT22;10127;47.780;9.606;2024-01-15T17:47:00;2.00;99.90
19930;DHT22;10127;47.780;9.606;2024-01-15T17:49:26;2.00;99.90
19930;DHT22;10127;47.780;9.606;2024-01-15T17:51:52;2.00;99.90
19930;DHT22;10127;47.780;9.606;2024-01-15T17:54:18;2.00;99.90
19930;DHT22;10127;47.780;9.606;2024-01-15T17:56:44;1.90;99.90
19930;DHT22;10127;47.780;9.606;2024-01-15T17:59:10;1.80;99.90
19930;DHT22;10127;47.780;9.606;2024-01-15T18:01:36;1.80;99.90
19930;DHT22;10127;47.780;9.606;2024-01-15T18:04:07;1.70;99.90
19930;DHT22;10127;47.780;9.606;2024-01-15T18:06:34;1.70;99.90
19930;DHT22;10127;47.780;9.606;2024-01-15T18:08:59;1.60;99.90
19930;DHT22;10127;47.780;9.606;2024-01-15T18:11:25;1.60;99.90
19930;DHT22;10127;47.780;9.606;2024-01-15T18:13:51;1.60;99.90
19930;DHT22;10127;47.780;9.606;2024-01-15T18:16:16;1.60;99.90
19930;DHT22;10127;47.780;9.606;2024-01-15T18:18:51;1.60;99.90
19930;DHT22;10127;47.780;9.606;2024-01-15T18:21:25;1.60;99.90
19930;DHT22;10127;47.780;9.606;2024-01-15T18:23:51;1.60;99.90
19930;DHT22;10127;47.780;9.606;2024-01-15T18:26:16;1.60;99.90
19930;DHT22;10127;47.780;9.606;2024-01-15T18:28:42;1.60;99.90
19930;DHT22;10127;47.780;9.606;2024-01-15T18:31:07;1.50;99.90
19930;DHT22;10127;47.780;9.606;2024-01-15T18:33:36;1.60;99.90
19930;DHT22;10127;47.780;9.606;2024-01-15T18:36:06;1.50;99.90
19930;DHT22;10127;47.780;9.606;2024-01-15T18:38:33;1.50;99.90
19930;DHT22;10127;47.780;9.606;2024-01-15T18:40:59;1.50;99.90
19930;DHT22;10127;47.780;9.606;2024-01-15T18:43:25;1.40;99.90
19930;DHT22;10127;47.780;9.606;2024-01-15T18:45:50;1.40;99.90
19930;DHT22;10127;47.780;9.606;2024-01-15T18:48:16;1.40;99.90
19930;DHT22;10127;47.780;9.606;2024-01-15T18:50:49;1.30;99.90
19930;DHT22;10127;47.780;9.606;2024-01-15T18:53:15;1.30;99.90
19930;DHT22;10127;47.780;9.606;2024-01-15T18:55:40;1.30;99.90
19930;DHT22;10127;47.780;9.606;2024-01-15T18:58:06;1.20;99.90
19930;DHT22;10127;47.780;9.606;2024-01-15T19:00:31;1.20;99.90
19930;DHT22;10127;47.780;9.606;2024-01-15T19:02:57;1.10;99.90
19930;DHT22;10127;47.780;9.606;2024-01-15T19:05:24;1.10;99.90
19930;DHT22;10127;47.780;9.606;2024-01-15T19:07:50;1.10;99.90
19930;DHT22;10127;47.780;9.606;2024-01-15T19:10:16;1.00;99.90
19930;DHT22;10127;47.780;9.606;2024-01-15T19:12:41;1.10;99.90
19930;DHT22;10127;47.780;9.606;2024-01-15T19:15:07;1.00;99.90
19930;DHT22;10127;47.780;9.606;2024-01-15T19:17:33;1.00;99.90
19930;DHT22;10127;47.780;9.606;2024-01-15T19:19:59;0.90;99.90
19930;DHT22;10127;47.780;9.606;2024-01-15T19:22:26;0.90;99.90
19930;DHT22;10127;47.780;9.606;2024-01-15T19:24:51;0.80;99.90
19930;DHT22;10127;47.780;9.606;2024-01-15T19:27:17;0.80;99.90
19930;DHT22;10127;47.780;9.606;2024-01-15T19:29:42;0.70;99.90
19930;DHT22;10127;47.780;9.606;2024-01-15T19:32:08;0.70;99.90
19930;DHT22;10127;47.780;9.606;2024-01-15T19:34:33;0.70;99.90
19930;DHT22;10127;47.780;9.606;2024-01-15T19:36:59;0.70;99.90
19930;DHT22;10127;47.780;9.606;2024-01-15T19:39:31;0.90;99.90
19930;DHT22;10127;47.780;9.606;2024-01-15T19:42:10;1.00;99.90
19930;DHT22;10127;47.780;9.606;2024-01-15T19:44:42;1.00;99.90
19930;DHT22;10127;47.780;9.606;2024-01-15T19:47:07;1.10;99.90
19930;DHT22;10127;47.780;9.606;2024-01-15T19:49:34;1.00;99.90
19930;DHT22;10127;47.780;9.606;2024-01-15T19:52:00;1.10;99.90
19930;DHT22;10127;47.780;9.606;2024-01-15T19:54:25;1.10;99.90
19930;DHT22;10127;47.780;9.606;2024-01-15T19:56:51;1.20;99.90
19930;DHT22;10127;47.780;9.606;2024-01-15T19:59:17;1.30;99.90
19930;DHT22;10127;47.780;9.606;2024-01-15T20:01:43;1.30;99.90
19930;DHT22;10127;47.780;9.606;2024-01-15T20:04:08;1.40;99.90
19930;DHT22;10127;47.780;9.606;2024-01-15T20:06:34;1.50;99.90
19930;DHT22;10127;47.780;9.606;2024-01-15T20:09:00;1.60;99.90
19930;DHT22;10127;47.780;9.606;2024-01-15T20:11:26;1.60;99.90
19930;DHT22;10127;47.780;9.606;2024-01-15T20:13:51;1.50;99.90
19930;DHT22;10127;47.780;9.606;2024-01-15T20:16:18;1.50;99.90
19930;DHT22;10127;47.780;9.606;2024-01-15T20:18:43;1.40;99.90
19930;DHT22;10127;47.780;9.606;2024-01-15T20:21:09;1.40;99.90
19930;DHT22;10127;47.780;9.606;2024-01-15T20:23:37;1.30;99.90
19930;DHT22;10127;47.780;9.606;2024-01-15T20:26:04;1.30;99.90
19930;DHT22;10127;47.780;9.606;2024-01-15T20:28:31;1.20;99.90
19930;DHT22;10127;47.780;9.606;2024-01-15T20:31:03;1.00;99.90
19930;DHT22;10127;47.780;9.606;2024-01-15T20:33:30;1.00;99.90
19930;DHT22;10127;47.780;9.606;2024-01-15T20:36:02;1.00;99.90
19930;DHT22;10127;47.780;9.606;2024-01-15T20:38:28;1.10;99.90
19930;DHT22;10127;47.780;9.606;2024-01-15T20:40:53;1.10;99.90
19930;DHT22;10127;47.780;9.606;2024-01-15T20:43:19;1.10;99.90
19930;DHT22;10127;47.780;9.606;2024-01-15T20:45:45;1.20;99.90
19930;DHT22;10127;47.780;9.606;2024-01-15T20:48:11;1.30;99.90
19930;DHT22;10127;47.780;9.606;2024-01-15T20:50:37;1.40;99.90
19930;DHT22;10127;47.780;9.606;2024-01-15T20:53:02;1.60;99.90
19930;DHT22;10127;47.780;9.606;2024-01-15T20:55:28;1.50;99.90
19930;DHT22;10127;47.780;9.606;2024-01-15T20:57:53;1.20;99.90
19930;DHT22;10127;47.780;9.606;2024-01-15T21:00:19;1.00;99.90
19930;DHT22;10127;47.780;9.606;2024-01-15T21:02:45;0.80;99.90
19930;DHT22;10127;47.780;9.606;2024-01-15T21:05:11;0.70;99.90
19930;DHT22;10127;47.780;9.606;2024-01-15T21:07:36;0.60;99.90
19930;DHT22;10127;47.780;9.606;2024-01-15T21:10:02;0.50;99.90
19930;DHT22;10127;47.780;9.606;2024-01-15T21:12:28;0.40;99.90
19930;DHT22;10127;47.780;9.606;2024-01-15T21:14:53;0.40;99.90
19930;DHT22;10127;47.780;9.606;2024-01-15T21:17:21;0.30;99.90
19930;DHT22;10127;47.780;9.606;2024-01-15T21:19:48;0.30;99.90
19930;DHT22;10127;47.780;9.606;2024-01-15T21:22:13;0.20;99.90
19930;DHT22;10127;47.780;9.606;2024-01-15T21:24:39;0.20;99.90
19930;DHT22;10127;47.780;9.606;2024-01-15T21:27:04;0.20;99.90
19930;DHT22;10127;47.780;9.606;2024-01-15T21:29:30;0.30;99.90
19930;DHT22;10127;47.780;9.606;2024-01-15T21:31:56;0.40;99.90
19930;DHT22;10127;47.780;9.606;2024-01-15T21:34:21;0.30;99.90
19930;DHT22;10127;47.780;9.606;2024-01-15T21:36:50;0.20;99.90
19930;DHT22;10127;47.780;9.606;2024-01-15T21:39:16;0.20;99.90
19930;DHT22;10127;47.780;9.606;2024-01-15T21:41:43;0.10;99.90
19930;DHT22;10127;47.780;9.606;2024-01-15T21:44:09;0.00;99.90